createdAt,value
2022-10-22T00:00:46.202Z,72.49
2022-10-22T00:03:14.225Z,71.52
2022-10-22T00:05:41.656Z,70.73
2022-10-22T00:08:09.088Z,70.89
2022-10-22T00:10:38.693Z,71.22
2022-10-22T00:13:05.992Z,71.30
2022-10-22T00:15:33.466Z,70.80
2022-10-22T00:18:01.187Z,71.04
2022-10-22T00:20:28.766Z,71.66
2022-10-22T00:22:56.279Z,71.67
2022-10-22T00:25:23.989Z,70.67
2022-10-22T00:27:51.584Z,70.49
2022-10-22T00:30:19.384Z,71.33
2022-10-22T00:32:47.164Z,71.50
2022-10-22T00:35:14.832Z,71.80
2022-10-22T00:37:42.246Z,71.68
2022-10-22T00:40:10.900Z,71.39
2022-10-22T00:42:38.966Z,71.67
2022-10-22T00:45:16.893Z,71.48
2022-10-22T00:47:54.595Z,70.98
2022-10-22T00:50:28.674Z,70.67
2022-10-22T00:52:58.091Z,71.00
2022-10-22T00:55:28.199Z,71.16
2022-10-22T00:57:57.633Z,73.67
2022-10-22T01:00:25.953Z,74.34
2022-10-22T01:02:55.855Z,73.58
2022-10-22T01:05:26.387Z,73.69
2022-10-22T01:07:54.583Z,71.17
2022-10-22T01:10:34.256Z,71.82
2022-10-22T01:13:17.691Z,73.24
2022-10-22T01:16:05.404Z,74.53
2022-10-22T01:18:39.295Z,73.85
2022-10-22T01:21:28.446Z,72.55
2022-10-22T01:24:12.071Z,71.99
2022-10-22T01:26:42.189Z,73.15
2022-10-22T01:29:26.624Z,72.52
2022-10-22T01:32:01.300Z,73.10
2022-10-22T01:34:30.993Z,72.51
2022-10-22T01:36:59.750Z,69.93
2022-10-22T01:39:30.487Z,69.68
2022-10-22T01:41:58.395Z,69.48
2022-10-22T01:44:31.917Z,70.18
2022-10-22T01:47:21.479Z,69.96
2022-10-22T01:49:48.726Z,71.15
2022-10-22T01:52:25.445Z,71.83
2022-10-22T01:55:03.594Z,73.02
2022-10-22T01:57:37.029Z,73.81
2022-10-22T02:00:10.147Z,73.85
2022-10-22T02:02:40.969Z,74.21
2022-10-22T02:05:16.952Z,74.18
2022-10-22T02:07:55.669Z,74.38
2022-10-22T02:10:25.015Z,72.55
2022-10-22T02:12:56.165Z,72.77
2022-10-22T02:15:26.242Z,73.24
2022-10-22T02:17:55.744Z,73.23
2022-10-22T02:20:27.850Z,73.95
2022-10-22T02:22:57.088Z,73.99
2022-10-22T02:25:28.620Z,73.77
2022-10-22T02:28:24.100Z,74.52
2022-10-22T02:31:01.012Z,73.17
2022-10-22T02:33:33.344Z,72.81
2022-10-22T02:36:02.689Z,72.89
2022-10-22T02:38:32.229Z,73.62
2022-10-22T02:40:59.960Z,73.43
2022-10-22T02:43:29.477Z,72.39
2022-10-22T02:45:57.301Z,72.97
2022-10-22T02:48:24.719Z,73.05
2022-10-22T02:50:52.210Z,74.28
2022-10-22T02:53:20.036Z,74.32
2022-10-22T02:55:47.333Z,73.54
2022-10-22T02:58:14.812Z,71.96
2022-10-22T03:00:42.860Z,71.68
2022-10-22T03:03:11.541Z,71.83
2022-10-22T03:05:38.914Z,73.42
2022-10-22T03:08:06.732Z,73.43
2022-10-22T03:10:34.202Z,73.67
2022-10-22T03:13:02.217Z,72.67
2022-10-22T03:15:29.925Z,72.79
2022-10-22T03:17:57.329Z,73.31
2022-10-22T03:20:24.724Z,73.91
2022-10-22T03:22:52.873Z,74.84
2022-10-22T03:25:24.404Z,74.05
2022-10-22T03:27:55.845Z,73.66
2022-10-22T03:30:23.320Z,74.17
2022-10-22T03:32:50.715Z,73.98
2022-10-22T03:35:18.493Z,74.02
2022-10-22T03:37:45.913Z,77.54
2022-10-22T03:40:14.059Z,76.60
2022-10-22T03:42:42.875Z,75.54
2022-10-22T03:45:10.895Z,75.50
2022-10-22T03:47:38.705Z,74.93
2022-10-22T03:50:07.265Z,74.88
2022-10-22T03:52:39.825Z,74.43
2022-10-22T03:55:09.006Z,73.47
2022-10-22T03:57:36.521Z,73.03
2022-10-22T04:00:06.335Z,73.14
2022-10-22T04:02:34.801Z,74.54
2022-10-22T04:05:02.786Z,74.97
2022-10-22T04:07:30.464Z,73.99
2022-10-22T04:09:57.833Z,74.82
2022-10-22T04:12:25.676Z,74.86
2022-10-22T04:14:53.163Z,75.17
2022-10-22T04:17:20.600Z,74.97
2022-10-22T04:19:48.417Z,74.41
2022-10-22T04:22:15.853Z,74.95
2022-10-22T04:24:43.276Z,74.82
2022-10-22T04:27:11.090Z,76.02
2022-10-22T04:29:38.692Z,76.17
2022-10-22T04:32:06.033Z,77.41
2022-10-22T04:34:35.573Z,78.03
2022-10-22T04:37:03.460Z,77.50
2022-10-22T04:39:31.012Z,77.44
2022-10-22T04:41:58.716Z,76.48
2022-10-22T04:44:26.064Z,76.27
2022-10-22T04:46:53.682Z,75.79
2022-10-22T04:49:21.535Z,76.24
2022-10-22T04:51:49.476Z,77.38
2022-10-22T04:54:16.907Z,76.80
2022-10-22T04:56:44.727Z,76.36
2022-10-22T04:59:13.054Z,75.54
2022-10-22T05:01:43.402Z,75.38
2022-10-22T05:04:14.129Z,75.23
2022-10-22T05:06:41.776Z,75.32
2022-10-22T05:09:14.917Z,75.82
2022-10-22T05:11:49.025Z,76.81
2022-10-22T05:14:19.901Z,76.74
2022-10-22T05:16:48.947Z,75.74
2022-10-22T05:19:24.166Z,75.83
2022-10-22T05:21:57.164Z,75.11
2022-10-22T05:24:25.774Z,75.57
2022-10-22T05:26:54.943Z,75.91
2022-10-22T05:29:23.525Z,76.43
2022-10-22T05:31:51.408Z,75.39
2022-10-22T05:34:19.259Z,76.32
2022-10-22T05:36:47.092Z,77.41
2022-10-22T05:39:14.668Z,76.59
2022-10-22T05:41:42.529Z,78.46
2022-10-22T05:44:12.763Z,78.68
2022-10-22T05:46:40.997Z,78.15
2022-10-22T05:49:11.628Z,77.77
2022-10-22T05:51:39.157Z,78.42
2022-10-22T05:54:08.735Z,77.84
2022-10-22T05:56:37.639Z,78.18
2022-10-22T05:59:05.506Z,77.90
2022-10-22T06:01:37.531Z,77.32
2022-10-22T06:04:08.276Z,77.67
2022-10-22T06:06:39.716Z,77.15
2022-10-22T06:09:18.960Z,77.31
2022-10-22T06:11:47.869Z,78.08
2022-10-22T06:14:16.098Z,78.06
2022-10-22T06:16:43.584Z,77.39
2022-10-22T06:19:13.789Z,77.08
2022-10-22T06:21:41.613Z,76.67
2022-10-22T06:24:10.564Z,76.42
2022-10-22T06:26:38.616Z,77.28
2022-10-22T06:29:06.343Z,74.76
2022-10-22T06:31:37.143Z,75.55
2022-10-22T06:34:10.650Z,75.57
2022-10-22T06:39:06.794Z,74.56
2022-10-22T06:41:34.291Z,73.99
2022-10-22T06:44:03.459Z,75.55
2022-10-22T06:46:32.037Z,73.64
2022-10-22T06:49:02.601Z,73.49
2022-10-22T06:51:30.476Z,74.01
2022-10-22T06:53:58.955Z,73.75
2022-10-22T06:56:29.115Z,72.50
2022-10-22T06:58:58.565Z,71.47
2022-10-22T07:01:30.223Z,72.02
2022-10-22T07:03:58.350Z,72.60
2022-10-22T07:06:26.947Z,71.92
2022-10-22T07:08:56.477Z,72.27
2022-10-22T07:11:30.496Z,72.65
2022-10-22T07:13:59.737Z,72.09
2022-10-22T07:16:32.027Z,70.34
2022-10-22T07:19:00.979Z,70.86
2022-10-22T07:21:29.818Z,69.63
2022-10-22T07:23:58.229Z,69.09
2022-10-22T07:26:27.269Z,68.52
2022-10-22T07:28:55.031Z,71.26
2022-10-22T07:31:22.755Z,71.49
2022-10-22T07:33:50.604Z,69.57
2022-10-22T07:36:18.450Z,69.13
2022-10-22T07:38:48.114Z,66.36
2022-10-22T07:41:17.002Z,65.89
2022-10-22T07:43:44.998Z,64.58
2022-10-22T07:46:12.553Z,63.72
2022-10-22T07:48:40.271Z,61.95
2022-10-22T07:51:08.118Z,61.01
2022-10-22T07:53:35.591Z,61.40
2022-10-22T07:56:03.237Z,60.91
2022-10-22T07:58:31.255Z,61.56
2022-10-22T08:01:05.968Z,61.30
2022-10-22T08:03:33.941Z,61.15
2022-10-22T08:06:01.532Z,61.03
2022-10-22T08:08:30.927Z,59.95
2022-10-22T08:11:01.033Z,59.43
2022-10-22T08:13:30.873Z,59.16
2022-10-22T08:16:00.876Z,57.87
2022-10-22T08:18:29.235Z,57.96
2022-10-22T08:20:57.621Z,56.52
2022-10-22T08:23:26.223Z,55.91
2022-10-22T08:25:55.141Z,56.08
2022-10-22T08:28:23.481Z,54.46
2022-10-22T08:30:51.415Z,53.13
2022-10-22T08:33:18.869Z,52.42
2022-10-22T08:35:50.272Z,54.33
2022-10-22T08:38:18.936Z,53.61
2022-10-22T08:40:57.350Z,53.67
2022-10-22T08:43:41.953Z,53.33
2022-10-22T08:46:29.600Z,53.08
2022-10-22T08:51:42.195Z,49.88
2022-10-22T08:54:21.837Z,49.54
2022-10-22T08:57:21.676Z,47.93
2022-10-22T09:00:11.636Z,47.92
2022-10-22T09:02:59.711Z,48.36
2022-10-22T09:05:37.538Z,48.52
2022-10-22T09:08:06.104Z,49.35
2022-10-22T09:10:37.080Z,48.63
2022-10-22T09:13:04.697Z,48.19
2022-10-22T09:15:32.212Z,47.81
2022-10-22T09:18:37.691Z,46.68
2022-10-22T09:21:34.259Z,46.90
2022-10-22T09:24:17.055Z,46.03
2022-10-22T09:26:44.598Z,45.10
2022-10-22T09:29:21.332Z,45.56
2022-10-22T09:31:49.036Z,45.08
2022-10-22T09:34:21.725Z,43.25
2022-10-22T09:36:58.128Z,42.67
2022-10-22T09:39:34.936Z,42.32
2022-10-22T09:42:02.543Z,43.04
2022-10-22T09:44:34.749Z,41.14
2022-10-22T09:47:43.683Z,40.60
2022-10-22T09:50:38.544Z,41.24
2022-10-22T09:53:14.581Z,40.63
2022-10-22T09:55:43.486Z,41.02
2022-10-22T09:58:14.716Z,40.07
2022-10-22T10:00:46.659Z,39.14
2022-10-22T10:03:20.496Z,38.81
2022-10-22T10:05:49.933Z,38.87
2022-10-22T10:08:18.102Z,39.06
2022-10-22T10:10:52.692Z,37.62
2022-10-22T10:13:42.320Z,38.35
2022-10-22T10:16:24.581Z,37.19
2022-10-22T10:19:08.152Z,37.77
2022-10-22T10:22:03.113Z,37.16
2022-10-22T10:25:08.602Z,36.53
2022-10-22T10:27:58.895Z,36.78
2022-10-22T10:30:26.702Z,35.80
2022-10-22T10:33:13.643Z,35.99
2022-10-22T10:36:00.520Z,37.35
2022-10-22T10:38:46.193Z,37.29
2022-10-22T10:41:19.551Z,37.70
2022-10-22T10:44:03.182Z,38.13
2022-10-22T10:46:54.002Z,38.60
2022-10-22T10:49:26.801Z,38.52
2022-10-22T10:52:21.395Z,37.65
2022-10-22T10:55:02.791Z,38.04
2022-10-22T10:57:45.315Z,38.15
2022-10-22T11:00:23.053Z,37.39
2022-10-22T11:03:18.322Z,36.57
2022-10-22T11:05:54.793Z,37.29
2022-10-22T11:08:25.502Z,36.48
2022-10-22T11:11:02.830Z,37.00
2022-10-22T11:13:48.558Z,36.15
2022-10-22T11:16:16.095Z,36.24
2022-10-22T11:19:15.476Z,36.20
2022-10-22T11:22:15.382Z,36.53
2022-10-22T11:25:13.720Z,36.66
2022-10-22T11:28:00.950Z,35.95
2022-10-22T11:30:36.608Z,36.61
2022-10-22T11:33:13.037Z,35.90
2022-10-22T11:35:45.284Z,36.26
2022-10-22T11:38:16.718Z,36.42
2022-10-22T11:41:07.210Z,36.26
2022-10-22T11:43:52.662Z,35.67
2022-10-22T11:46:20.439Z,35.66
2022-10-22T11:49:14.012Z,34.79
2022-10-22T11:51:43.996Z,35.37
2022-10-22T11:54:45.010Z,34.66
2022-10-22T11:57:15.866Z,34.48
2022-10-22T12:00:01.053Z,33.29
2022-10-22T12:02:28.746Z,32.79
2022-10-22T12:05:25.160Z,32.56
2022-10-22T12:08:01.511Z,33.17
2022-10-22T12:10:36.431Z,32.36
2022-10-22T12:13:24.441Z,32.18
2022-10-22T12:15:54.541Z,33.08
2022-10-22T12:18:31.766Z,31.94
2022-10-22T12:20:59.716Z,32.81
2022-10-22T12:23:34.519Z,32.00
2022-10-22T12:26:04.832Z,31.26
2022-10-22T12:28:40.829Z,31.36
2022-10-22T12:31:16.975Z,31.07
2022-10-22T12:33:44.578Z,30.29
2022-10-22T12:36:19.078Z,30.88
2022-10-22T12:38:47.669Z,30.48
2022-10-22T12:41:15.612Z,31.27
2022-10-22T12:43:43.069Z,30.93
2022-10-22T12:46:16.546Z,30.98
2022-10-22T12:48:46.289Z,31.04
2022-10-22T12:51:20.687Z,30.88
2022-10-22T12:53:52.131Z,30.95
2022-10-22T12:56:26.872Z,31.81
2022-10-22T12:59:02.142Z,32.38
2022-10-22T13:01:36.655Z,32.70
2022-10-22T13:04:12.802Z,32.65
2022-10-22T13:06:46.137Z,33.26
2022-10-22T13:09:25.391Z,33.25
2022-10-22T13:12:01.933Z,33.58
2022-10-22T13:14:32.696Z,33.26
2022-10-22T13:17:13.735Z,33.18
2022-10-22T13:19:45.807Z,32.56
2022-10-22T13:22:27.282Z,32.20
2022-10-22T13:27:29.288Z,32.34
2022-10-22T13:29:59.636Z,32.03
2022-10-22T13:32:34.497Z,32.18
2022-10-22T13:35:03.979Z,32.15
2022-10-22T13:37:34.382Z,32.42
2022-10-22T13:40:02.084Z,33.15
2022-10-22T13:42:29.490Z,33.12
2022-10-22T13:44:56.886Z,33.46
2022-10-22T13:47:28.039Z,33.90
2022-10-22T13:49:59.092Z,33.59
2022-10-22T13:52:37.504Z,34.38
2022-10-22T13:55:24.721Z,34.49
2022-10-22T13:58:12.281Z,35.44
2022-10-22T14:00:42.466Z,36.78
2022-10-22T14:03:22.018Z,37.08
2022-10-22T14:05:50.160Z,37.21
2022-10-22T14:08:20.997Z,36.66
2022-10-22T14:10:48.902Z,37.01
2022-10-22T14:13:18.175Z,36.73
2022-10-22T14:18:24.361Z,37.58
2022-10-22T14:21:01.281Z,37.67
2022-10-22T14:23:30.771Z,36.19
2022-10-22T14:25:59.711Z,34.32
2022-10-22T14:28:26.968Z,32.59
2022-10-22T14:30:54.613Z,31.70
2022-10-22T14:33:33.031Z,32.65
2022-10-22T14:36:01.393Z,34.24
2022-10-22T14:38:29.962Z,35.29
2022-10-22T14:40:59.570Z,37.18
2022-10-22T14:43:33.087Z,37.85
2022-10-22T14:46:00.826Z,38.93
2022-10-22T14:48:28.244Z,39.77
2022-10-22T14:50:55.999Z,40.82
2022-10-22T14:53:23.760Z,41.21
2022-10-22T14:55:52.325Z,42.56
2022-10-22T14:58:19.842Z,42.31
2022-10-22T15:00:47.602Z,42.68
2022-10-22T15:03:15.018Z,43.50
2022-10-22T15:05:45.393Z,43.75
2022-10-22T15:08:15.214Z,44.34
2022-10-22T15:10:42.956Z,44.57
2022-10-22T15:13:10.614Z,45.92
2022-10-22T15:15:41.750Z,46.82
2022-10-22T15:18:09.229Z,47.40
2022-10-22T15:20:36.655Z,48.31
2022-10-22T15:23:04.416Z,48.26
2022-10-22T15:25:32.173Z,48.20
2022-10-22T15:28:07.422Z,48.19
2022-10-22T15:30:37.299Z,48.69
2022-10-22T15:33:05.213Z,49.10
2022-10-22T15:35:32.813Z,49.97
2022-10-22T15:38:00.687Z,50.58
2022-10-22T15:40:28.174Z,50.15
2022-10-22T15:42:55.613Z,50.61
2022-10-22T15:45:25.202Z,51.25
2022-10-22T15:47:52.625Z,51.66
2022-10-22T15:50:20.048Z,51.73
2022-10-22T15:52:47.861Z,52.80
2022-10-22T15:55:15.662Z,52.93
2022-10-22T15:57:43.198Z,53.34
2022-10-22T16:00:11.906Z,53.30
2022-10-22T16:02:39.813Z,53.85
2022-10-22T16:05:09.269Z,54.53
2022-10-22T16:07:36.727Z,54.93
2022-10-22T16:10:05.292Z,55.38
2022-10-22T16:12:33.519Z,55.49
2022-10-22T16:15:00.853Z,54.70
2022-10-22T16:17:28.348Z,56.27
2022-10-22T16:19:56.398Z,56.08
2022-10-22T16:22:23.877Z,55.71
2022-10-22T16:24:51.265Z,56.13
2022-10-22T16:27:19.024Z,56.43
2022-10-22T16:29:46.473Z,57.11
2022-10-22T16:32:13.843Z,56.85
2022-10-22T16:34:42.206Z,56.85
2022-10-22T16:37:10.505Z,56.77
2022-10-22T16:39:38.462Z,56.27
2022-10-22T16:42:06.892Z,56.25
2022-10-22T16:44:34.384Z,56.76
2022-10-22T16:47:01.764Z,58.13
2022-10-22T16:49:29.467Z,59.77
2022-10-22T16:51:56.952Z,59.45
2022-10-22T16:54:24.598Z,59.40
2022-10-22T16:56:52.337Z,59.11
2022-10-22T16:59:19.693Z,59.04
2022-10-22T17:01:47.113Z,59.22
2022-10-22T17:04:17.412Z,58.91
2022-10-22T17:06:44.877Z,58.36
2022-10-22T17:09:14.818Z,59.15
2022-10-22T17:11:42.608Z,59.38
2022-10-22T17:14:12.200Z,60.33
2022-10-22T17:16:39.931Z,60.63
2022-10-22T17:19:07.407Z,61.00
2022-10-22T17:21:34.822Z,61.40
2022-10-22T17:24:02.621Z,61.41
2022-10-22T17:26:33.356Z,60.97
2022-10-22T17:29:00.964Z,61.19
2022-10-22T17:31:35.683Z,62.36
2022-10-22T17:34:05.783Z,62.42
2022-10-22T17:36:35.883Z,63.75
2022-10-22T17:39:06.877Z,62.68
2022-10-22T17:41:37.125Z,62.60
2022-10-22T17:44:07.150Z,62.31
2022-10-22T17:46:35.037Z,61.27
2022-10-22T17:49:07.179Z,61.33
2022-10-22T17:51:34.974Z,61.10
2022-10-22T17:54:04.674Z,62.14
2022-10-22T17:56:35.374Z,62.24
2022-10-22T17:59:03.158Z,62.78
2022-10-22T18:01:33.413Z,63.02
2022-10-22T18:04:08.067Z,62.50
2022-10-22T18:06:36.291Z,63.36
2022-10-22T18:09:06.384Z,63.25
2022-10-22T18:11:36.754Z,63.23
2022-10-22T18:14:05.208Z,63.89
2022-10-22T18:16:32.728Z,64.10
2022-10-22T18:19:00.213Z,64.29
2022-10-22T18:21:29.664Z,64.77
2022-10-22T18:23:57.962Z,64.90
2022-10-22T18:26:26.941Z,64.42
2022-10-22T18:28:57.056Z,65.01
2022-10-22T18:31:26.525Z,65.04
2022-10-22T18:33:55.220Z,64.53
2022-10-22T18:36:24.077Z,64.45
2022-10-22T18:38:56.513Z,64.17
2022-10-22T18:41:27.105Z,65.03
2022-10-22T18:43:56.728Z,64.57
2022-10-22T18:46:27.247Z,65.60
2022-10-22T18:48:59.054Z,67.21
2022-10-22T18:51:30.773Z,66.00
2022-10-22T18:54:05.390Z,66.32
2022-10-22T18:56:40.963Z,66.02
2022-10-22T18:59:17.295Z,66.41
2022-10-22T19:01:44.905Z,66.17
2022-10-22T19:04:13.860Z,65.68
2022-10-22T19:06:45.298Z,65.45
2022-10-22T19:09:15.541Z,65.53
2022-10-22T19:11:45.380Z,65.63
2022-10-22T19:14:14.037Z,66.29
2022-10-22T19:16:41.793Z,66.45
2022-10-22T19:19:09.311Z,66.23
2022-10-22T19:21:38.358Z,66.14
2022-10-22T19:24:06.705Z,65.90
2022-10-22T19:26:35.448Z,65.41
2022-10-22T19:29:04.226Z,65.30
2022-10-22T19:31:32.295Z,65.48
2022-10-22T19:34:01.389Z,65.15
2022-10-22T19:36:30.400Z,65.49
2022-10-22T19:38:59.480Z,65.22
2022-10-22T19:41:28.238Z,65.85
2022-10-22T19:43:57.498Z,65.91
2022-10-22T19:46:27.439Z,66.54
2022-10-22T19:48:57.374Z,66.70
2022-10-22T19:51:30.057Z,67.35
2022-10-22T19:53:59.960Z,67.48
2022-10-22T19:56:28.824Z,67.29
2022-10-22T19:58:56.766Z,67.35
2022-10-22T20:01:25.079Z,67.44
2022-10-22T20:03:53.338Z,66.87
2022-10-22T20:06:22.002Z,66.97
2022-10-22T20:08:52.379Z,66.69
2022-10-22T20:11:29.155Z,66.87
2022-10-22T20:13:57.468Z,67.53
2022-10-22T20:16:28.735Z,66.64
2022-10-22T20:19:00.989Z,66.37
2022-10-22T20:21:28.913Z,66.42
2022-10-22T20:23:57.547Z,67.44
2022-10-22T20:26:28.349Z,67.48
2022-10-22T20:28:57.964Z,67.50
2022-10-22T20:31:28.654Z,68.22
2022-10-22T20:33:59.269Z,68.55
2022-10-22T20:36:27.939Z,67.79
2022-10-22T20:39:08.717Z,66.89
2022-10-22T20:41:40.747Z,68.16
2022-10-22T20:44:13.710Z,67.73
2022-10-22T20:46:41.151Z,68.45
2022-10-22T20:49:12.141Z,69.23
2022-10-22T20:51:39.591Z,68.61
2022-10-22T20:54:08.611Z,68.34
2022-10-22T20:56:38.948Z,68.46
2022-10-22T20:59:08.696Z,68.18
2022-10-22T21:01:54.615Z,67.92
2022-10-22T21:04:22.138Z,68.05
2022-10-22T21:06:50.745Z,67.05
2022-10-22T21:09:18.240Z,67.85
2022-10-22T21:11:46.321Z,68.33
2022-10-22T21:14:17.028Z,68.22
2022-10-22T21:16:45.530Z,69.01
2022-10-22T21:19:13.035Z,69.93
2022-10-22T21:21:40.929Z,69.73
2022-10-22T21:24:08.961Z,69.63
2022-10-22T21:26:40.919Z,69.45
2022-10-22T21:29:09.893Z,69.60
2022-10-22T21:31:37.824Z,69.21
2022-10-22T21:34:05.291Z,69.45
2022-10-22T21:36:33.134Z,68.45
2022-10-22T21:39:01.134Z,69.09
2022-10-22T21:41:28.517Z,68.56
2022-10-22T21:43:56.249Z,69.49
2022-10-22T21:46:26.653Z,70.62
2022-10-22T21:48:59.319Z,70.18
2022-10-22T21:51:27.309Z,70.97
2022-10-22T21:53:56.133Z,70.97
2022-10-22T21:56:30.169Z,71.21
2022-10-22T21:58:57.897Z,70.57
2022-10-22T22:01:26.321Z,69.98
2022-10-22T22:03:54.480Z,70.98
2022-10-22T22:06:26.286Z,70.96
2022-10-22T22:08:55.762Z,71.14
2022-10-22T22:11:26.535Z,71.28
2022-10-22T22:13:55.463Z,71.39
2022-10-22T22:16:28.449Z,71.00
2022-10-22T22:18:58.695Z,72.03
2022-10-22T22:21:26.775Z,70.36
2022-10-22T22:23:54.364Z,71.49
2022-10-22T22:26:26.903Z,72.29
2022-10-22T22:28:59.502Z,71.99
2022-10-22T22:31:30.133Z,72.17
2022-10-22T22:34:00.252Z,72.99
2022-10-22T22:36:28.509Z,74.09
2022-10-22T22:38:56.767Z,73.77
2022-10-22T22:41:24.584Z,73.85
2022-10-22T22:43:51.929Z,74.40
2022-10-22T22:46:19.488Z,73.60
2022-10-22T22:48:50.733Z,72.78
2022-10-22T22:51:18.401Z,73.64
2022-10-22T22:53:46.454Z,72.70
2022-10-22T22:56:25.688Z,73.58
2022-10-22T22:58:53.446Z,73.19
2022-10-22T23:01:34.547Z,73.09
2022-10-22T23:04:13.333Z,73.89
2022-10-22T23:06:41.112Z,74.05
2022-10-22T23:09:11.684Z,73.94
2022-10-22T23:11:41.717Z,73.96
2022-10-22T23:14:13.874Z,73.37
2022-10-22T23:16:49.103Z,72.90
2022-10-22T23:19:19.860Z,73.08
2022-10-22T23:21:52.799Z,73.41
2022-10-22T23:24:23.757Z,73.21
2022-10-22T23:26:53.343Z,73.86
2022-10-22T23:29:30.929Z,73.40
2022-10-22T23:32:04.071Z,72.64
2022-10-22T23:34:32.300Z,75.10
2022-10-22T23:37:00.415Z,74.20
2022-10-22T23:39:29.635Z,74.91
2022-10-22T23:41:58.516Z,74.19
2022-10-22T23:44:26.052Z,73.99
2022-10-22T23:46:55.344Z,74.04
2022-10-22T23:49:23.112Z,74.10
2022-10-22T23:51:50.467Z,74.39
2022-10-22T23:54:18.812Z,74.03
2022-10-22T23:56:46.704Z,74.61
